createdAt,value
2019-03-30T00:03:48.780Z,101417.39
2019-03-30T00:08:53.070Z,101417.39
2019-03-30T00:13:57.603Z,101400.45
2019-03-30T00:19:01.947Z,101400.45
2019-03-30T00:24:06.300Z,101403.04
2019-03-30T00:29:10.571Z,101403.04
2019-03-30T00:34:14.858Z,101397.28
2019-03-30T00:39:19.190Z,101397.22
2019-03-30T00:44:23.524Z,101397.28
2019-03-30T00:49:27.831Z,101386.53
2019-03-30T00:54:32.137Z,101381.16
2019-03-30T00:59:36.469Z,101380.67
2019-03-30T01:04:40.766Z,101377.23
2019-03-30T01:09:45.104Z,101378.47
2019-03-30T01:14:49.445Z,101378.47
2019-03-30T01:20:02.893Z,101365.52
2019-03-30T01:24:59.921Z,101361.48
2019-03-30T01:30:04.349Z,101361.48
2019-03-30T01:35:08.814Z,101353.90
2019-03-30T01:40:13.209Z,101356.97
2019-03-30T01:45:17.563Z,101344.88
2019-03-30T01:50:21.938Z,101340.46
2019-03-30T01:55:26.216Z,101343.15
2019-03-30T02:00:30.601Z,101339.98
2019-03-30T02:05:34.878Z,101333.36
2019-03-30T02:10:41.057Z,101333.36
2019-03-30T02:15:45.543Z,101334.05
2019-03-30T02:20:49.822Z,101334.05
2019-03-30T02:25:54.120Z,101329.22
2019-03-30T02:30:58.436Z,101319.44
2019-03-30T02:36:02.792Z,101319.44
2019-03-30T02:41:07.137Z,101310.41
2019-03-30T02:46:11.559Z,101307.23
2019-03-30T02:51:15.881Z,101298.80
2019-03-30T02:56:20.166Z,101298.80
2019-03-30T03:01:24.472Z,101291.48
2019-03-30T03:06:28.795Z,101282.56
2019-03-30T03:11:33.259Z,101284.39
2019-03-30T03:16:37.570Z,101282.56
2019-03-30T03:21:41.872Z,101279.98
2019-03-30T03:26:46.161Z,101279.50
2019-03-30T03:31:50.471Z,101277.30
2019-03-30T03:36:54.763Z,101271.55
2019-03-30T03:41:59.253Z,101275.84
2019-03-30T03:47:03.569Z,101275.84
2019-03-30T03:52:07.945Z,101263.38
2019-03-30T03:57:12.219Z,101263.48
2019-03-30T04:02:16.601Z,101268.38
2019-03-30T04:07:20.939Z,101268.38
2019-03-30T04:12:25.485Z,101266.92
2019-03-30T04:17:32.150Z,101273.27
2019-03-30T04:22:36.498Z,101273.27
2019-03-30T04:27:40.834Z,101265.95
2019-03-30T04:32:45.179Z,101249.93
2019-03-30T04:37:49.518Z,101249.93
2019-03-30T04:42:53.823Z,101251.28
2019-03-30T04:47:58.155Z,101250.41
2019-03-30T04:53:02.504Z,101250.41
2019-03-30T04:58:09.277Z,101248.11
2019-03-30T05:03:12.885Z,101245.52
2019-03-30T05:08:17.246Z,101243.80
2019-03-30T05:13:21.546Z,101243.80
2019-03-30T05:18:25.816Z,101235.25
2019-03-30T05:23:30.159Z,101236.49
2019-03-30T05:28:53.458Z,101238.80
2019-03-30T05:33:57.988Z,101237.84
2019-03-30T05:39:02.278Z,101237.84
2019-03-30T05:44:06.580Z,101236.98
2019-03-30T05:49:10.987Z,101236.71
2019-03-30T05:54:15.278Z,101237.95
2019-03-30T05:59:19.559Z,101232.57
2019-03-30T06:04:23.840Z,101237.46
2019-03-30T06:09:28.236Z,101233.91
2019-03-30T06:14:32.516Z,101233.91
2019-03-30T06:19:36.891Z,101225.48
2019-03-30T06:24:41.167Z,101219.61
2019-03-30T06:29:47.102Z,101219.87
2019-03-30T06:34:51.442Z,101216.44
2019-03-30T06:39:55.778Z,101208.86
2019-03-30T06:45:00.292Z,101216.70
2019-03-30T06:50:04.751Z,101216.70
2019-03-30T06:55:09.022Z,101205.69
2019-03-30T07:00:13.415Z,101209.13
2019-03-30T07:05:17.739Z,101211.74
2019-03-30T07:10:22.128Z,101211.74
2019-03-30T07:15:26.899Z,101219.70
2019-03-30T07:20:31.359Z,101212.59
2019-03-30T07:25:35.830Z,101216.04
2019-03-30T07:30:40.110Z,101219.59
2019-03-30T07:35:44.494Z,101219.21
2019-03-30T07:40:48.817Z,101219.21
2019-03-30T07:45:53.103Z,101219.96
2019-03-30T07:50:57.493Z,101219.96
2019-03-30T07:56:08.374Z,101229.41
2019-03-30T08:01:07.914Z,101223.91
2019-03-30T08:06:13.776Z,101220.88
2019-03-30T08:11:20.428Z,101219.06
2019-03-30T08:16:24.789Z,101219.06
2019-03-30T08:21:29.073Z,101224.83
2019-03-30T08:26:35.626Z,101225.08
2019-03-30T08:31:39.549Z,101225.08
2019-03-30T08:36:43.958Z,101228.21
2019-03-30T08:41:48.282Z,101228.21
2019-03-30T08:46:52.647Z,101208.89
2019-03-30T08:51:57.012Z,101205.03
2019-03-30T08:57:01.430Z,101205.03
2019-03-30T09:02:05.858Z,101187.56
2019-03-30T09:07:10.190Z,101186.46
2019-03-30T09:12:14.521Z,101186.31
2019-03-30T09:17:18.873Z,101185.97
2019-03-30T09:22:23.154Z,101166.83
2019-03-30T09:27:27.638Z,101166.83
2019-03-30T09:32:31.923Z,101173.97
2019-03-30T09:37:36.257Z,101162.78
2019-03-30T09:42:40.858Z,101162.78
2019-03-30T09:47:45.184Z,101158.36
2019-03-30T09:52:49.523Z,101140.54
2019-03-30T09:57:53.849Z,101143.13
2019-03-30T10:02:58.280Z,101144.48
2019-03-30T10:08:02.621Z,101137.70
2019-03-30T10:13:07.072Z,101129.31
2019-03-30T10:18:11.613Z,101129.31
2019-03-30T10:23:15.986Z,101123.25
2019-03-30T10:28:20.265Z,101104.90
2019-03-30T10:33:24.599Z,101101.46
2019-03-30T10:38:28.884Z,101086.89
2019-03-30T10:43:33.274Z,101085.45
2019-03-30T10:48:37.623Z,101077.02
2019-03-30T10:53:41.915Z,101066.45
2019-03-30T10:58:46.455Z,101066.45
2019-03-30T11:03:50.734Z,101058.47
2019-03-30T11:08:55.051Z,101053.22
2019-03-30T11:13:59.401Z,101053.22
2019-03-30T11:19:03.731Z,101049.15
2019-03-30T11:24:08.037Z,101042.92
2019-03-30T11:29:15.287Z,101042.92
2019-03-30T11:34:19.657Z,101034.47
2019-03-30T11:39:24.024Z,101031.31
2019-03-30T11:44:28.378Z,101020.50
2019-03-30T11:49:32.670Z,101020.50
2019-03-30T11:54:36.989Z,101013.22
2019-03-30T11:59:41.290Z,100997.38
2019-03-30T12:04:45.566Z,100981.30
2019-03-30T12:09:49.943Z,100988.08
2019-03-30T12:14:54.243Z,100970.89
2019-03-30T12:19:58.678Z,100956.80
2019-03-30T12:25:03.149Z,100956.80
2019-03-30T12:30:07.730Z,100939.03
2019-03-30T12:35:12.038Z,100929.01
2019-03-30T12:40:16.346Z,100930.31
2019-03-30T12:45:20.694Z,100916.67
2019-03-30T12:50:24.990Z,100913.39
2019-03-30T12:55:29.294Z,100904.77
2019-03-30T13:00:33.580Z,100904.77
2019-03-30T13:05:37.871Z,100902.83
2019-03-30T13:10:45.320Z,100887.84
2019-03-30T13:15:48.172Z,100887.84
2019-03-30T13:20:52.451Z,100880.60
2019-03-30T13:26:03.445Z,100880.60
2019-03-30T13:31:02.759Z,100871.83
2019-03-30T13:36:10.661Z,100875.78
2019-03-30T13:41:14.621Z,100869.81
2019-03-30T13:46:18.960Z,100857.27
2019-03-30T13:51:23.270Z,100851.09
2019-03-30T13:56:27.556Z,100844.50
2019-03-30T14:01:31.875Z,100844.50
2019-03-30T14:06:36.150Z,100837.80
2019-03-30T14:11:40.432Z,100829.18
2019-03-30T14:16:44.714Z,100825.52
2019-03-30T14:21:49.016Z,100825.52
2019-03-30T14:26:53.298Z,100809.09
2019-03-30T14:31:57.666Z,100801.20
2019-03-30T14:37:01.972Z,100801.20
2019-03-30T14:42:06.458Z,100784.45
2019-03-30T14:47:10.740Z,100768.78
2019-03-30T14:52:15.055Z,100766.45
2019-03-30T14:57:19.312Z,100766.45
2019-03-30T15:02:23.589Z,100751.63
2019-03-30T15:07:27.888Z,100751.63
2019-03-30T15:12:32.204Z,100754.31
2019-03-30T15:17:36.495Z,100754.45
2019-03-30T15:22:40.806Z,100745.89
2019-03-30T15:27:45.078Z,100745.15
2019-03-30T15:32:49.352Z,100744.66
2019-03-30T15:37:53.648Z,100744.66
2019-03-30T15:42:57.945Z,100735.14
2019-03-30T15:48:02.223Z,100733.43
2019-03-30T15:53:06.519Z,100731.69
2019-03-30T15:58:10.817Z,100731.69
2019-03-30T16:03:15.113Z,100721.23
2019-03-30T16:08:19.443Z,100719.88
2019-03-30T16:13:23.775Z,100716.02
2019-03-30T16:18:28.113Z,100717.97
2019-03-30T16:23:32.513Z,100717.97
2019-03-30T16:28:36.795Z,100714.05
2019-03-30T16:33:41.540Z,100704.81
2019-03-30T16:38:45.860Z,100704.16
2019-03-30T16:43:50.137Z,100697.20
2019-03-30T16:59:55.999Z,100687.48
2019-03-30T17:05:00.397Z,100678.80
2019-03-30T17:10:05.361Z,100682.06
2019-03-30T17:15:09.922Z,100669.16
2019-03-30T17:20:14.231Z,100668.03
2019-03-30T17:25:18.537Z,100672.35
2019-03-30T17:30:22.860Z,100672.35
2019-03-30T17:35:27.211Z,100669.34
2019-03-30T17:40:31.609Z,100668.84
2019-03-30T17:45:35.987Z,100675.94
2019-03-30T17:50:40.338Z,100668.23
2019-03-30T17:55:44.650Z,100670.16
2019-03-30T18:00:49.074Z,100676.48
2019-03-30T18:05:53.699Z,100674.53
2019-03-30T18:10:58.006Z,100674.53
2019-03-30T18:16:02.410Z,100674.38
2019-03-30T18:21:06.744Z,100674.38
2019-03-30T18:26:11.048Z,100676.70
2019-03-30T18:31:15.361Z,100673.16
2019-03-30T18:36:20.105Z,100678.42
2019-03-30T18:41:24.491Z,100671.60
2019-03-30T18:46:28.809Z,100675.27
2019-03-30T18:51:35.451Z,100675.63
2019-03-30T18:56:39.886Z,100669.62
2019-03-30T19:01:44.251Z,100679.39
2019-03-30T19:06:48.638Z,100671.60
2019-03-30T19:11:52.943Z,100674.30
2019-03-30T19:16:57.313Z,100674.30
2019-03-30T19:22:01.640Z,100678.20
2019-03-30T19:27:06.079Z,100675.27
2019-03-30T19:32:10.430Z,100672.08
2019-03-30T19:37:14.857Z,100669.66
2019-03-30T19:42:19.300Z,100669.66
2019-03-30T19:47:23.662Z,100675.14
2019-03-30T19:52:39.156Z,100664.78
2019-03-30T19:57:34.021Z,100664.78
2019-03-30T20:02:38.320Z,100665.14
2019-03-30T20:07:42.709Z,100665.14
2019-03-30T20:12:47.046Z,100659.67
2019-03-30T20:17:51.385Z,100659.67
2019-03-30T20:22:55.815Z,100648.38
2019-03-30T20:28:00.266Z,100652.53
2019-03-30T20:33:04.612Z,100652.53
2019-03-30T20:38:09.033Z,100649.59
2019-03-30T20:43:13.349Z,100649.59
2019-03-30T20:48:17.807Z,100653.31
2019-03-30T20:53:22.283Z,100653.31
2019-03-30T20:58:26.628Z,100658.20
2019-03-30T21:03:30.961Z,100658.20
2019-03-30T21:08:35.271Z,100652.95
2019-03-30T21:13:39.672Z,100649.41
2019-03-30T21:18:44.012Z,100649.00
2019-03-30T21:23:48.346Z,100643.48
2019-03-30T21:28:52.690Z,100644.70
2019-03-30T21:33:57.238Z,100645.08
2019-03-30T21:39:01.556Z,100643.24
2019-03-30T21:44:06.005Z,100645.20
2019-03-30T21:49:10.458Z,100645.20
2019-03-30T21:54:15.163Z,100645.56
2019-03-30T21:59:19.731Z,100631.36
2019-03-30T22:04:24.158Z,100631.36
2019-03-30T22:09:28.574Z,100631.36
2019-03-30T22:14:32.949Z,100663.75
2019-03-30T22:19:37.256Z,100671.72
2019-03-30T22:24:41.584Z,100680.74
2019-03-30T22:29:45.931Z,100680.87
2019-03-30T22:34:50.259Z,100669.38
2019-03-30T22:39:54.578Z,100679.77
2019-03-30T22:44:58.916Z,100675.13
2019-03-30T22:50:03.412Z,100672.92
2019-03-30T22:55:07.798Z,100672.92
2019-03-30T23:00:17.318Z,100672.92
2019-03-30T23:05:21.696Z,100670.72
2019-03-30T23:10:26.039Z,100679.16
2019-03-30T23:15:30.338Z,100679.16
2019-03-30T23:20:34.794Z,100665.34
2019-03-30T23:25:39.143Z,100664.00
2019-03-30T23:30:54.308Z,100664.00
2019-03-30T23:35:49.495Z,100655.20
2019-03-30T23:40:53.872Z,100664.98
2019-03-30T23:45:58.231Z,100648.58
2019-03-30T23:51:02.565Z,100661.80
2019-03-30T23:56:20.409Z,100668.03
